sensor_id;sensor_type;location;lat;lon;timestamp;pressure;altitude;pressure_sealevel;temperature;humidity
14067;BME280;7108;42.684;23.350;2022-10-31T00:00:18;95792.28;;;15.49;75.58
14067;BME280;7108;42.684;23.350;2022-10-31T00:02:43;95776.69;;;15.39;76.28
14067;BME280;7108;42.684;23.350;2022-10-31T00:05:09;95722.34;;;15.00;77.52
14067;BME280;7108;42.684;23.350;2022-10-31T00:07:34;95796.53;;;15.47;76.20
14067;BME280;7108;42.684;23.350;2022-10-31T00:09:59;95761.91;;;15.01;76.29
14067;BME280;7108;42.684;23.350;2022-10-31T00:12:26;95728.41;;;14.86;76.87
14067;BME280;7108;42.684;23.350;2022-10-31T00:14:51;95773.41;;;15.23;77.83
14067;BME280;7108;42.684;23.350;2022-10-31T00:17:17;95787.84;;;15.31;77.67
14067;BME280;7108;42.684;23.350;2022-10-31T00:19:42;95770.88;;;15.08;77.94
14067;BME280;7108;42.684;23.350;2022-10-31T00:22:07;95777.13;;;15.12;78.96
14067;BME280;7108;42.684;23.350;2022-10-31T00:24:33;95780.13;;;15.00;80.05
14067;BME280;7108;42.684;23.350;2022-10-31T00:26:58;95756.66;;;14.82;81.96
14067;BME280;7108;42.684;23.350;2022-10-31T00:29:24;95784.13;;;15.13;81.28
14067;BME280;7108;42.684;23.350;2022-10-31T00:31:49;95814.22;;;15.01;81.92
14067;BME280;7108;42.684;23.350;2022-10-31T00:34:14;95691.84;;;14.41;82.27
14067;BME280;7108;42.684;23.350;2022-10-31T00:36:40;95784.06;;;15.06;82.39
14067;BME280;7108;42.684;23.350;2022-10-31T00:39:05;95763.34;;;14.91;82.60
14067;BME280;7108;42.684;23.350;2022-10-31T00:41:31;95770.66;;;14.87;82.44
14067;BME280;7108;42.684;23.350;2022-10-31T00:43:56;95717.75;;;14.67;83.07
14067;BME280;7108;42.684;23.350;2022-10-31T00:46:21;95742.34;;;14.85;84.06
14067;BME280;7108;42.684;23.350;2022-10-31T00:48:47;95707.66;;;14.64;83.83
14067;BME280;7108;42.684;23.350;2022-10-31T00:51:12;95728.31;;;14.76;83.73
14067;BME280;7108;42.684;23.350;2022-10-31T00:53:38;95766.03;;;14.91;84.10
14067;BME280;7108;42.684;23.350;2022-10-31T00:56:03;95745.34;;;14.76;84.38
14067;BME280;7108;42.684;23.350;2022-10-31T00:58:30;95767.31;;;15.01;84.68
14067;BME280;7108;42.684;23.350;2022-10-31T01:00:56;95763.34;;;14.91;85.98
14067;BME280;7108;42.684;23.350;2022-10-31T01:03:26;95719.38;;;14.75;85.00
14067;BME280;7108;42.684;23.350;2022-10-31T01:05:59;95780.50;;;15.02;86.08
14067;BME280;7108;42.684;23.350;2022-10-31T01:08:25;95799.69;;;15.19;86.00
14067;BME280;7108;42.684;23.350;2022-10-31T01:11:07;95794.28;;;15.19;85.96
14067;BME280;7108;42.684;23.350;2022-10-31T01:13:34;95804.78;;;15.21;87.91
14067;BME280;7108;42.684;23.350;2022-10-31T01:16:00;95764.94;;;14.96;88.42
14067;BME280;7108;42.684;23.350;2022-10-31T01:18:26;95772.38;;;15.02;88.32
14067;BME280;7108;42.684;23.350;2022-10-31T01:21:07;95798.16;;;15.18;91.24
14067;BME280;7108;42.684;23.350;2022-10-31T01:23:33;95778.94;;;15.01;90.43
14067;BME280;7108;42.684;23.350;2022-10-31T01:26:03;95782.50;;;15.05;91.61
14067;BME280;7108;42.684;23.350;2022-10-31T01:28:29;95804.97;;;15.06;92.05
14067;BME280;7108;42.684;23.350;2022-10-31T01:30:55;95666.91;;;13.99;94.93
14067;BME280;7108;42.684;23.350;2022-10-31T01:33:20;95843.69;;;14.99;94.70
14067;BME280;7108;42.684;23.350;2022-10-31T01:35:45;95831.25;;;14.98;93.70
14067;BME280;7108;42.684;23.350;2022-10-31T01:38:11;95702.13;;;14.25;93.06
14067;BME280;7108;42.684;23.350;2022-10-31T01:40:36;95790.28;;;14.74;94.43
14067;BME280;7108;42.684;23.350;2022-10-31T01:43:02;95809.03;;;14.86;93.22
14067;BME280;7108;42.684;23.350;2022-10-31T01:45:27;95793.84;;;14.48;92.20
14067;BME280;7108;42.684;23.350;2022-10-31T01:47:52;95669.41;;;13.56;91.98
14067;BME280;7108;42.684;23.350;2022-10-31T01:50:38;95814.09;;;14.58;93.92
14067;BME280;7108;42.684;23.350;2022-10-31T01:53:07;95764.97;;;14.08;94.73
14067;BME280;7108;42.684;23.350;2022-10-31T01:55:42;95817.44;;;14.48;95.14
14067;BME280;7108;42.684;23.350;2022-10-31T01:58:16;95716.66;;;13.84;95.75
14067;BME280;7108;42.684;23.350;2022-10-31T02:00:46;95803.44;;;14.43;96.14
14067;BME280;7108;42.684;23.350;2022-10-31T02:03:13;95754.59;;;14.10;95.17
14067;BME280;7108;42.684;23.350;2022-10-31T02:05:39;95814.38;;;14.49;95.51
14067;BME280;7108;42.684;23.350;2022-10-31T02:08:08;95801.66;;;14.53;95.25
14067;BME280;7108;42.684;23.350;2022-10-31T02:10:37;95766.28;;;14.17;96.64
14067;BME280;7108;42.684;23.350;2022-10-31T02:13:06;95779.16;;;14.24;98.21
14067;BME280;7108;42.684;23.350;2022-10-31T02:15:32;95780.72;;;14.25;99.84
14067;BME280;7108;42.684;23.350;2022-10-31T02:17:58;95809.25;;;14.41;98.77
14067;BME280;7108;42.684;23.350;2022-10-31T02:20:48;95671.06;;;13.38;98.85
14067;BME280;7108;42.684;23.350;2022-10-31T02:23:45;95814.69;;;14.44;100.00
14067;BME280;7108;42.684;23.350;2022-10-31T02:29:20;95820.28;;;14.29;100.00
14067;BME280;7108;42.684;23.350;2022-10-31T02:32:14;95818.28;;;14.23;100.00
14067;BME280;7108;42.684;23.350;2022-10-31T02:37:29;95792.19;;;14.15;100.00
14067;BME280;7108;42.684;23.350;2022-10-31T02:48:19;95730.13;;;13.55;100.00
14067;BME280;7108;42.684;23.350;2022-10-31T02:50:52;95779.00;;;13.87;100.00
14067;BME280;7108;42.684;23.350;2022-10-31T02:53:19;95790.84;;;14.02;100.00
14067;BME280;7108;42.684;23.350;2022-10-31T02:55:50;95817.06;;;14.20;100.00
14067;BME280;7108;42.684;23.350;2022-10-31T02:58:20;95839.66;;;14.31;100.00
14067;BME280;7108;42.684;23.350;2022-10-31T03:04:05;95847.09;;;14.34;100.00
14067;BME280;7108;42.684;23.350;2022-10-31T03:09:42;95845.47;;;14.30;100.00
14067;BME280;7108;42.684;23.350;2022-10-31T03:12:17;95850.50;;;14.31;100.00
14067;BME280;7108;42.684;23.350;2022-10-31T03:14:59;95846.25;;;14.30;100.00
14067;BME280;7108;42.684;23.350;2022-10-31T03:18:00;95813.34;;;14.06;100.00
14067;BME280;7108;42.684;23.350;2022-10-31T03:20:30;95805.41;;;13.94;100.00
14067;BME280;7108;42.684;23.350;2022-10-31T03:22:59;95841.09;;;14.22;100.00
14067;BME280;7108;42.684;23.350;2022-10-31T03:25:27;95837.03;;;14.09;100.00
14067;BME280;7108;42.684;23.350;2022-10-31T03:28:00;95851.47;;;14.16;100.00
14067;BME280;7108;42.684;23.350;2022-10-31T03:30:32;95853.03;;;14.17;100.00
14067;BME280;7108;42.684;23.350;2022-10-31T03:33:03;95810.38;;;13.88;100.00
14067;BME280;7108;42.684;23.350;2022-10-31T03:35:30;95833.00;;;13.99;100.00
14067;BME280;7108;42.684;23.350;2022-10-31T03:38:02;95848.97;;;14.08;100.00
14067;BME280;7108;42.684;23.350;2022-10-31T03:40:29;95786.22;;;13.54;100.00
14067;BME280;7108;42.684;23.350;2022-10-31T03:43:03;95859.50;;;14.09;100.00
14067;BME280;7108;42.684;23.350;2022-10-31T03:45:37;95828.06;;;13.82;100.00
14067;BME280;7108;42.684;23.350;2022-10-31T03:48:04;95873.44;;;13.89;100.00
14067;BME280;7108;42.684;23.350;2022-10-31T03:50:43;95835.25;;;13.72;100.00
14067;BME280;7108;42.684;23.350;2022-10-31T03:53:24;95851.56;;;13.75;100.00
14067;BME280;7108;42.684;23.350;2022-10-31T03:56:14;95830.38;;;13.58;100.00
14067;BME280;7108;42.684;23.350;2022-10-31T03:59:05;95872.38;;;13.93;100.00
14067;BME280;7108;42.684;23.350;2022-10-31T04:01:35;95845.53;;;13.63;100.00
14067;BME280;7108;42.684;23.350;2022-10-31T04:04:03;95793.97;;;13.33;100.00
14067;BME280;7108;42.684;23.350;2022-10-31T04:06:36;95864.25;;;13.71;100.00
14067;BME280;7108;42.684;23.350;2022-10-31T04:09:05;95849.38;;;13.62;100.00
14067;BME280;7108;42.684;23.350;2022-10-31T04:11:36;95886.09;;;13.81;100.00
14067;BME280;7108;42.684;23.350;2022-10-31T04:14:06;95829.69;;;13.42;100.00
14067;BME280;7108;42.684;23.350;2022-10-31T04:16:35;95819.84;;;13.31;100.00
14067;BME280;7108;42.684;23.350;2022-10-31T04:19:00;95844.59;;;13.33;100.00
14067;BME280;7108;42.684;23.350;2022-10-31T04:21:28;95862.72;;;13.51;100.00
14067;BME280;7108;42.684;23.350;2022-10-31T04:23:54;95865.31;;;13.44;100.00
14067;BME280;7108;42.684;23.350;2022-10-31T04:26:19;95865.72;;;13.46;100.00
14067;BME280;7108;42.684;23.350;2022-10-31T04:28:45;95855.19;;;13.41;100.00
14067;BME280;7108;42.684;23.350;2022-10-31T04:31:11;95889.72;;;13.67;100.00
14067;BME280;7108;42.684;23.350;2022-10-31T04:33:37;95872.00;;;13.50;100.00
14067;BME280;7108;42.684;23.350;2022-10-31T04:36:03;95860.59;;;13.60;100.00
14067;BME280;7108;42.684;23.350;2022-10-31T04:38:28;95877.66;;;13.64;100.00
14067;BME280;7108;42.684;23.350;2022-10-31T04:40:56;95850.59;;;13.23;100.00
14067;BME280;7108;42.684;23.350;2022-10-31T04:43:22;95872.25;;;13.42;100.00
14067;BME280;7108;42.684;23.350;2022-10-31T04:45:47;95828.19;;;13.22;100.00
14067;BME280;7108;42.684;23.350;2022-10-31T04:48:13;95877.88;;;13.33;100.00
14067;BME280;7108;42.684;23.350;2022-10-31T04:50:41;95879.22;;;13.43;100.00
14067;BME280;7108;42.684;23.350;2022-10-31T04:53:10;95903.84;;;13.38;100.00
14067;BME280;7108;42.684;23.350;2022-10-31T04:55:36;95893.69;;;13.31;100.00
14067;BME280;7108;42.684;23.350;2022-10-31T04:58:02;95903.00;;;13.34;100.00
14067;BME280;7108;42.684;23.350;2022-10-31T05:00:27;95906.72;;;13.45;100.00
14067;BME280;7108;42.684;23.350;2022-10-31T05:02:55;95912.66;;;13.54;100.00
14067;BME280;7108;42.684;23.350;2022-10-31T05:05:29;95899.91;;;13.32;100.00
14067;BME280;7108;42.684;23.350;2022-10-31T05:07:55;95907.00;;;13.40;100.00
14067;BME280;7108;42.684;23.350;2022-10-31T05:10:23;95911.91;;;13.53;100.00
14067;BME280;7108;42.684;23.350;2022-10-31T05:12:54;95891.06;;;13.35;100.00
14067;BME280;7108;42.684;23.350;2022-10-31T05:15:22;95898.94;;;13.43;100.00
14067;BME280;7108;42.684;23.350;2022-10-31T05:17:52;95916.28;;;13.61;100.00
14067;BME280;7108;42.684;23.350;2022-10-31T05:20:23;95906.47;;;13.53;100.00
14067;BME280;7108;42.684;23.350;2022-10-31T05:22:51;95894.59;;;13.39;100.00
14067;BME280;7108;42.684;23.350;2022-10-31T05:25:19;95883.09;;;13.23;100.00
14067;BME280;7108;42.684;23.350;2022-10-31T05:27:48;95898.09;;;13.39;100.00
14067;BME280;7108;42.684;23.350;2022-10-31T05:30:16;95897.59;;;13.34;100.00
14067;BME280;7108;42.684;23.350;2022-10-31T05:32:44;95911.22;;;13.37;100.00
14067;BME280;7108;42.684;23.350;2022-10-31T05:35:12;95861.47;;;13.04;100.00
14067;BME280;7108;42.684;23.350;2022-10-31T05:37:38;95873.94;;;13.09;100.00
14067;BME280;7108;42.684;23.350;2022-10-31T05:40:11;95934.97;;;13.47;100.00
14067;BME280;7108;42.684;23.350;2022-10-31T05:42:41;95931.50;;;13.47;100.00
14067;BME280;7108;42.684;23.350;2022-10-31T05:45:19;95903.31;;;13.29;100.00
14067;BME280;7108;42.684;23.350;2022-10-31T05:47:57;95920.47;;;13.36;100.00
14067;BME280;7108;42.684;23.350;2022-10-31T05:50:25;95947.94;;;13.57;100.00
14067;BME280;7108;42.684;23.350;2022-10-31T05:52:59;95948.31;;;13.56;100.00
14067;BME280;7108;42.684;23.350;2022-10-31T05:55:26;95944.53;;;13.60;100.00
14067;BME280;7108;42.684;23.350;2022-10-31T05:57:55;95835.13;;;13.01;100.00
14067;BME280;7108;42.684;23.350;2022-10-31T06:00:21;95949.75;;;13.72;100.00
14067;BME280;7108;42.684;23.350;2022-10-31T06:02:47;95878.25;;;13.13;100.00
14067;BME280;7108;42.684;23.350;2022-10-31T06:05:13;95890.78;;;13.21;100.00
14067;BME280;7108;42.684;23.350;2022-10-31T06:07:38;95943.72;;;13.60;100.00
14067;BME280;7108;42.684;23.350;2022-10-31T06:10:07;95903.53;;;13.39;100.00
14067;BME280;7108;42.684;23.350;2022-10-31T06:12:33;95970.59;;;13.68;100.00
14067;BME280;7108;42.684;23.350;2022-10-31T06:15:07;95891.50;;;13.37;100.00
14067;BME280;7108;42.684;23.350;2022-10-31T06:17:36;95965.91;;;13.65;100.00
14067;BME280;7108;42.684;23.350;2022-10-31T06:20:03;95933.13;;;13.51;100.00
14067;BME280;7108;42.684;23.350;2022-10-31T06:22:32;95959.81;;;13.72;100.00
14067;BME280;7108;42.684;23.350;2022-10-31T06:25:18;95904.16;;;13.33;100.00
14067;BME280;7108;42.684;23.350;2022-10-31T06:27:54;95834.63;;;12.96;100.00
14067;BME280;7108;42.684;23.350;2022-10-31T06:30:20;95776.41;;;12.64;100.00
14067;BME280;7108;42.684;23.350;2022-10-31T06:32:46;95923.75;;;13.45;100.00
14067;BME280;7108;42.684;23.350;2022-10-31T06:35:11;95986.56;;;13.95;100.00
14067;BME280;7108;42.684;23.350;2022-10-31T06:37:37;96024.16;;;14.16;100.00
14067;BME280;7108;42.684;23.350;2022-10-31T06:40:03;95929.81;;;13.61;100.00
14067;BME280;7108;42.684;23.350;2022-10-31T06:42:29;95927.88;;;13.80;100.00
14067;BME280;7108;42.684;23.350;2022-10-31T06:44:54;95962.75;;;14.04;100.00
14067;BME280;7108;42.684;23.350;2022-10-31T06:47:22;95910.00;;;13.76;100.00
14067;BME280;7108;42.684;23.350;2022-10-31T06:49:48;95905.44;;;13.80;100.00
14067;BME280;7108;42.684;23.350;2022-10-31T06:52:13;95929.03;;;14.02;100.00
14067;BME280;7108;42.684;23.350;2022-10-31T06:54:39;95966.06;;;14.39;100.00
14067;BME280;7108;42.684;23.350;2022-10-31T06:57:09;95959.75;;;14.32;100.00
14067;BME280;7108;42.684;23.350;2022-10-31T06:59:35;95976.31;;;14.49;100.00
14067;BME280;7108;42.684;23.350;2022-10-31T07:02:03;95847.69;;;13.98;100.00
14067;BME280;7108;42.684;23.350;2022-10-31T07:04:30;95899.47;;;14.16;100.00
14067;BME280;7108;42.684;23.350;2022-10-31T07:06:56;95884.63;;;14.32;100.00
14067;BME280;7108;42.684;23.350;2022-10-31T07:09:21;95865.59;;;14.29;100.00
14067;BME280;7108;42.684;23.350;2022-10-31T07:11:47;95909.00;;;14.58;100.00
14067;BME280;7108;42.684;23.350;2022-10-31T07:14:12;96006.66;;;15.35;100.00
14067;BME280;7108;42.684;23.350;2022-10-31T07:16:38;95993.84;;;15.32;100.00
14067;BME280;7108;42.684;23.350;2022-10-31T07:19:06;95915.53;;;15.08;100.00
14067;BME280;7108;42.684;23.350;2022-10-31T07:21:34;95919.59;;;15.21;100.00
14067;BME280;7108;42.684;23.350;2022-10-31T07:23:59;95982.72;;;15.74;100.00
14067;BME280;7108;42.684;23.350;2022-10-31T07:26:30;95972.97;;;15.73;100.00
14067;BME280;7108;42.684;23.350;2022-10-31T07:28:56;95937.09;;;15.57;100.00
14067;BME280;7108;42.684;23.350;2022-10-31T07:31:21;95889.03;;;15.28;100.00
14067;BME280;7108;42.684;23.350;2022-10-31T07:33:47;95967.69;;;15.54;100.00
14067;BME280;7108;42.684;23.350;2022-10-31T07:36:15;95945.06;;;15.43;100.00
14067;BME280;7108;42.684;23.350;2022-10-31T07:38:41;95875.69;;;15.16;100.00
14067;BME280;7108;42.684;23.350;2022-10-31T07:41:06;95948.50;;;15.69;100.00
14067;BME280;7108;42.684;23.350;2022-10-31T07:43:31;95935.19;;;15.61;100.00
14067;BME280;7108;42.684;23.350;2022-10-31T07:45:57;95940.25;;;15.62;100.00
14067;BME280;7108;42.684;23.350;2022-10-31T07:48:22;95923.97;;;15.29;100.00
14067;BME280;7108;42.684;23.350;2022-10-31T07:50:48;95957.38;;;15.66;100.00
14067;BME280;7108;42.684;23.350;2022-10-31T07:53:14;95957.38;;;15.66;100.00
14067;BME280;7108;42.684;23.350;2022-10-31T07:55:40;95963.69;;;15.77;100.00
14067;BME280;7108;42.684;23.350;2022-10-31T08:00:39;95940.66;;;15.64;100.00
14067;BME280;7108;42.684;23.350;2022-10-31T08:03:16;95965.91;;;15.65;100.00
14067;BME280;7108;42.684;23.350;2022-10-31T08:05:42;95828.41;;;14.84;100.00
14067;BME280;7108;42.684;23.350;2022-10-31T08:08:11;95943.91;;;15.76;100.00
14067;BME280;7108;42.684;23.350;2022-10-31T08:10:37;95976.78;;;16.01;100.00
14067;BME280;7108;42.684;23.350;2022-10-31T08:13:05;95869.69;;;15.29;100.00
14067;BME280;7108;42.684;23.350;2022-10-31T08:15:37;95968.13;;;15.92;100.00
14067;BME280;7108;42.684;23.350;2022-10-31T08:18:06;95957.41;;;16.06;100.00
14067;BME280;7108;42.684;23.350;2022-10-31T08:20:32;95968.72;;;16.11;100.00
14067;BME280;7108;42.684;23.350;2022-10-31T08:23:04;95920.31;;;15.84;100.00
14067;BME280;7108;42.684;23.350;2022-10-31T08:25:32;95896.78;;;15.62;100.00
14067;BME280;7108;42.684;23.350;2022-10-31T08:27:58;95957.25;;;15.88;100.00
14067;BME280;7108;42.684;23.350;2022-10-31T08:30:29;95852.25;;;15.34;100.00
14067;BME280;7108;42.684;23.350;2022-10-31T08:33:00;95939.25;;;15.77;100.00
14067;BME280;7108;42.684;23.350;2022-10-31T08:35:26;95946.56;;;16.09;100.00
14067;BME280;7108;42.684;23.350;2022-10-31T08:38:01;95891.97;;;15.85;100.00
14067;BME280;7108;42.684;23.350;2022-10-31T08:40:28;95972.16;;;16.44;100.00
14067;BME280;7108;42.684;23.350;2022-10-31T08:43:05;95970.63;;;16.47;100.00
14067;BME280;7108;42.684;23.350;2022-10-31T08:45:33;95914.31;;;16.08;100.00
14067;BME280;7108;42.684;23.350;2022-10-31T08:48:04;95942.97;;;16.38;100.00
14067;BME280;7108;42.684;23.350;2022-10-31T08:50:34;95916.75;;;16.20;100.00
14067;BME280;7108;42.684;23.350;2022-10-31T08:53:15;95955.22;;;16.65;100.00
14067;BME280;7108;42.684;23.350;2022-10-31T08:55:42;95976.59;;;16.66;100.00
14067;BME280;7108;42.684;23.350;2022-10-31T08:58:11;95899.75;;;16.30;100.00
14067;BME280;7108;42.684;23.350;2022-10-31T09:00:40;95877.53;;;16.21;100.00
14067;BME280;7108;42.684;23.350;2022-10-31T09:03:10;95876.84;;;16.31;100.00
14067;BME280;7108;42.684;23.350;2022-10-31T09:05:36;95925.72;;;16.74;100.00
14067;BME280;7108;42.684;23.350;2022-10-31T09:08:03;95835.34;;;16.41;99.51
14067;BME280;7108;42.684;23.350;2022-10-31T09:10:39;95954.84;;;17.30;99.91
14067;BME280;7108;42.684;23.350;2022-10-31T09:13:08;95947.72;;;17.12;96.10
14067;BME280;7108;42.684;23.350;2022-10-31T09:15:35;95942.72;;;17.17;96.33
14067;BME280;7108;42.684;23.350;2022-10-31T09:18:02;95949.88;;;17.39;95.25
14067;BME280;7108;42.684;23.350;2022-10-31T09:20:31;95916.25;;;17.18;94.00
14067;BME280;7108;42.684;23.350;2022-10-31T09:23:03;95804.25;;;16.42;94.17
14067;BME280;7108;42.684;23.350;2022-10-31T09:25:33;95889.81;;;17.22;94.89
14067;BME280;7108;42.684;23.350;2022-10-31T09:28:00;95800.88;;;16.65;93.46
14067;BME280;7108;42.684;23.350;2022-10-31T09:30:28;95775.16;;;16.49;93.29
14067;BME280;7108;42.684;23.350;2022-10-31T09:32:58;95889.56;;;17.51;92.94
14067;BME280;7108;42.684;23.350;2022-10-31T09:35:25;95739.09;;;16.66;91.15
14067;BME280;7108;42.684;23.350;2022-10-31T09:38:00;95927.44;;;17.91;89.79
14067;BME280;7108;42.684;23.350;2022-10-31T09:40:41;95941.91;;;18.16;91.67
14067;BME280;7108;42.684;23.350;2022-10-31T09:51:49;95796.13;;;17.51;85.48
14067;BME280;7108;42.684;23.350;2022-10-31T09:54:37;95933.34;;;18.69;84.00
14067;BME280;7108;42.684;23.350;2022-10-31T09:57:12;95886.97;;;18.45;83.22
14067;BME280;7108;42.684;23.350;2022-10-31T09:59:40;95880.34;;;18.42;82.53
14067;BME280;7108;42.684;23.350;2022-10-31T10:02:39;95916.94;;;18.73;81.83
14067;BME280;7108;42.684;23.350;2022-10-31T10:05:22;95914.59;;;18.85;79.64
14067;BME280;7108;42.684;23.350;2022-10-31T10:08:03;95846.81;;;18.49;81.63
14067;BME280;7108;42.684;23.350;2022-10-31T10:13:32;95812.88;;;18.46;78.64
14067;BME280;7108;42.684;23.350;2022-10-31T10:21:54;95892.69;;;19.23;73.00
14067;BME280;7108;42.684;23.350;2022-10-31T10:24:59;95887.16;;;19.30;71.43
14067;BME280;7108;42.684;23.350;2022-10-31T10:30:21;95872.31;;;19.38;69.88
14067;BME280;7108;42.684;23.350;2022-10-31T10:32:50;95887.06;;;19.55;70.59
14067;BME280;7108;42.684;23.350;2022-10-31T10:38:15;95869.44;;;19.63;68.97
14067;BME280;7108;42.684;23.350;2022-10-31T10:41:10;95843.66;;;19.60;66.76
14067;BME280;7108;42.684;23.350;2022-10-31T10:43:37;95779.00;;;19.36;66.43
14067;BME280;7108;42.684;23.350;2022-10-31T10:46:25;95863.38;;;19.99;67.08
14067;BME280;7108;42.684;23.350;2022-10-31T10:52:14;95827.47;;;19.93;64.70
14067;BME280;7108;42.684;23.350;2022-10-31T11:00:21;95872.47;;;20.36;59.38
14067;BME280;7108;42.684;23.350;2022-10-31T11:02:53;95756.09;;;19.74;58.67
14067;BME280;7108;42.684;23.350;2022-10-31T11:07:56;95779.25;;;20.10;57.08
14067;BME280;7108;42.684;23.350;2022-10-31T11:10:21;95808.81;;;20.25;57.73
14067;BME280;7108;42.684;23.350;2022-10-31T11:13:20;95792.59;;;20.44;57.65
14067;BME280;7108;42.684;23.350;2022-10-31T11:18:23;95811.16;;;20.67;57.30
14067;BME280;7108;42.684;23.350;2022-10-31T11:21:01;95738.41;;;20.29;56.23
14067;BME280;7108;42.684;23.350;2022-10-31T11:23:29;95832.34;;;21.00;56.26
14067;BME280;7108;42.684;23.350;2022-10-31T11:26:03;95701.56;;;20.37;56.48
14067;BME280;7108;42.684;23.350;2022-10-31T11:28:32;95809.06;;;21.14;55.86
14067;BME280;7108;42.684;23.350;2022-10-31T11:31:05;95750.84;;;20.74;54.95
14067;BME280;7108;42.684;23.350;2022-10-31T11:33:34;95755.50;;;20.77;53.92
14067;BME280;7108;42.684;23.350;2022-10-31T11:36:34;95784.50;;;21.08;52.48
14067;BME280;7108;42.684;23.350;2022-10-31T11:39:05;95827.75;;;21.23;52.53
14067;BME280;7108;42.684;23.350;2022-10-31T11:41:39;95808.38;;;21.37;51.82
14067;BME280;7108;42.684;23.350;2022-10-31T11:44:16;95803.31;;;21.35;51.36
14067;BME280;7108;42.684;23.350;2022-10-31T11:46:58;95809.78;;;21.52;52.27
14067;BME280;7108;42.684;23.350;2022-10-31T11:52:06;95800.34;;;21.53;50.33
14067;BME280;7108;42.684;23.350;2022-10-31T11:54:44;95729.69;;;21.08;50.43
14067;BME280;7108;42.684;23.350;2022-10-31T11:59:55;95754.59;;;21.46;49.88
14067;BME280;7108;42.684;23.350;2022-10-31T12:02:22;95784.63;;;21.83;49.33
14067;BME280;7108;42.684;23.350;2022-10-31T12:07:23;95786.66;;;21.79;49.05
14067;BME280;7108;42.684;23.350;2022-10-31T12:09:49;95787.25;;;21.90;48.92
14067;BME280;7108;42.684;23.350;2022-10-31T12:12:39;95789.13;;;21.96;48.28
14067;BME280;7108;42.684;23.350;2022-10-31T12:15:35;95716.94;;;21.47;49.18
14067;BME280;7108;42.684;23.350;2022-10-31T12:20:50;95788.88;;;22.10;48.17
14067;BME280;7108;42.684;23.350;2022-10-31T12:27:07;95780.16;;;22.15;48.26
14067;BME280;7108;42.684;23.350;2022-10-31T12:36:00;95775.94;;;22.34;47.22
14067;BME280;7108;42.684;23.350;2022-10-31T12:41:39;95779.22;;;22.48;47.52
14067;BME280;7108;42.684;23.350;2022-10-31T12:57:45;95759.09;;;22.54;46.63
14067;BME280;7108;42.684;23.350;2022-10-31T13:00:12;95776.84;;;22.69;46.48
14067;BME280;7108;42.684;23.350;2022-10-31T13:02:51;95786.78;;;22.63;46.97
14067;BME280;7108;42.684;23.350;2022-10-31T13:05:42;95774.88;;;22.50;46.37
14067;BME280;7108;42.684;23.350;2022-10-31T13:08:12;95777.34;;;22.45;46.94
14067;BME280;7108;42.684;23.350;2022-10-31T13:10:47;95780.09;;;22.45;47.08
14067;BME280;7108;42.684;23.350;2022-10-31T13:13:39;95694.06;;;21.83;47.03
14067;BME280;7108;42.684;23.350;2022-10-31T13:16:24;95777.03;;;22.40;47.51
14067;BME280;7108;42.684;23.350;2022-10-31T13:19:03;95760.75;;;22.29;48.12
14067;BME280;7108;42.684;23.350;2022-10-31T13:21:37;95753.91;;;22.14;46.94
14067;BME280;7108;42.684;23.350;2022-10-31T13:24:09;95792.00;;;22.35;46.45
14067;BME280;7108;42.684;23.350;2022-10-31T13:26:42;95757.31;;;22.22;46.29
14067;BME280;7108;42.684;23.350;2022-10-31T13:31:35;95769.13;;;22.19;46.30
14067;BME280;7108;42.684;23.350;2022-10-31T13:34:27;95784.66;;;22.29;46.72
14067;BME280;7108;42.684;23.350;2022-10-31T13:37:06;95749.84;;;21.99;47.81
14067;BME280;7108;42.684;23.350;2022-10-31T13:42:41;95694.00;;;21.37;47.57
14067;BME280;7108;42.684;23.350;2022-10-31T13:45:18;95776.34;;;21.86;48.01
14067;BME280;7108;42.684;23.350;2022-10-31T13:48:17;95763.50;;;21.80;47.57
14067;BME280;7108;42.684;23.350;2022-10-31T13:51:07;95686.25;;;21.32;47.42
14067;BME280;7108;42.684;23.350;2022-10-31T13:53:45;95763.09;;;21.81;46.53
14067;BME280;7108;42.684;23.350;2022-10-31T13:59:04;95781.03;;;21.86;47.15
14067;BME280;7108;42.684;23.350;2022-10-31T14:01:57;95758.28;;;21.63;49.31
14067;BME280;7108;42.684;23.350;2022-10-31T14:04:36;95784.84;;;21.69;51.96
14067;BME280;7108;42.684;23.350;2022-10-31T14:07:06;95787.69;;;21.62;52.68
14067;BME280;7108;42.684;23.350;2022-10-31T14:09:36;95747.44;;;21.26;52.97
14067;BME280;7108;42.684;23.350;2022-10-31T14:12:10;95788.66;;;21.45;53.33
14067;BME280;7108;42.684;23.350;2022-10-31T14:14:46;95664.97;;;20.57;52.27
14067;BME280;7108;42.684;23.350;2022-10-31T14:17:18;95793.59;;;21.31;53.04
14067;BME280;7108;42.684;23.350;2022-10-31T14:20:21;95694.66;;;20.59;51.01
14067;BME280;7108;42.684;23.350;2022-10-31T14:22:41;95759.00;;;21.10;52.74
14067;BME280;7108;42.684;23.350;2022-10-31T14:25:26;95792.06;;;21.26;52.54
14067;BME280;7108;42.684;23.350;2022-10-31T14:27:52;95794.06;;;21.26;52.63
14067;BME280;7108;42.684;23.350;2022-10-31T14:30:21;95800.75;;;21.21;53.23
14067;BME280;7108;42.684;23.350;2022-10-31T14:33:09;95773.63;;;21.01;53.49
14067;BME280;7108;42.684;23.350;2022-10-31T14:36:00;95797.00;;;21.08;55.14
14067;BME280;7108;42.684;23.350;2022-10-31T14:50:45;95795.44;;;20.74;56.06
14067;BME280;7108;42.684;23.350;2022-10-31T14:53:44;95795.22;;;20.58;64.08
14067;BME280;7108;42.684;23.350;2022-10-31T14:56:11;95762.34;;;20.22;63.99
14067;BME280;7108;42.684;23.350;2022-10-31T15:01:07;95808.50;;;20.20;66.10
14067;BME280;7108;42.684;23.350;2022-10-31T15:03:45;95793.44;;;19.94;65.91
14067;BME280;7108;42.684;23.350;2022-10-31T15:06:14;95735.94;;;19.54;66.06
14067;BME280;7108;42.684;23.350;2022-10-31T15:11:14;95750.72;;;19.60;68.12
14067;BME280;7108;42.684;23.350;2022-10-31T15:13:57;95753.88;;;19.55;68.64
14067;BME280;7108;42.684;23.350;2022-10-31T15:16:36;95724.47;;;19.15;69.55
14067;BME280;7108;42.684;23.350;2022-10-31T15:19:24;95785.59;;;19.46;72.38